Monterey, VA

4:51 AM EDT on April 21, 2015 (GMT -0400)
Petersburg | | Change Station
CLOSE
Current Station
Airport
Location: Petersburg,
Elevation: 961 ft
Nearby Weather Stations

Elev 961 ft 38.99 °N, 79.15 °W | Updated 16 minutes ago

Mostly Cloudy
Mostly Cloudy
49 °F
Feels Like 49 °F
N
13
Wind Variable Wind from West
Gusts 16 mph

Today
High -- | Low -- °F
--% Chance of Precip.
Yesterday
High -- | Low -- °F
Precip. -- in
6:34 AM 8:00 PM
Waxing Crescent, 9% visible
Pressure 29.75 in
Visibility 10.0 miles
Clouds Scattered Clouds 11000 ft
Dew Point 32 °F
Humidity 51%
Rainfall 0.00 in
Snow Depth Not available.
UV 0 out of 12
Pollen 7.00 out of 12
Air Quality Not available.
Flu Activity Local Activity
METAR KW99 210835Z AUTO 27011G14KT 10SM SCT110 10/00 A2975 RMK AO2 T00960000

More Conditions Fewer Conditions

Pressure 29.75 in
Visibility 10.0 miles
Clouds Scattered Clouds 11000 ft
Dew Point 32 °F
Humidity 51%
Rainfall 0.00 in
Snow Depth Not available.
UV 0 out of 12
Pollen 7.00 out of 12
Air Quality Not available.
Flu Activity Local Activity
METAR KW99 210835Z AUTO 27011G14KT 10SM SCT110 10/00 A2975 RMK AO2 T00960000

More Conditions Fewer Conditions

10-Day Weather Forecast

Almanac

Astronomy

Apr. 21, 2015 Rise Set
Actual Time
Civil Twilight
Nautical Twilight
Astronomical Twilight
Moon
Length of Visible Light
Length of Day
Tomorrow will be .
, % of the Moon is Illuminated

Today's Extremes

State Highs State Lows

Community

WunderPhotos

Upload Photos

1,815,329 photos uploaded!

WunderBlogs® & News

Nearby

Air Quality

  Air Quality AQ Index Pollutant
Not available.

Snow Depth

Station Depth Elevation

Earthquake Activity

City Distance Mag. Time & Date
Minimum magnitude displayed is 2.5.

Coastal Water Temperatures

Place Temperature

Stations

Nearby Weather Stations

Station Location Temp. Windchill Dew Point Humidity Wind Precip. Elev Updated Type